Time;durP1;ratioP1;P1;durP2;ratioP2;P2;SDS_P1;SDS_P2;PMS_P1;PMS_P2;Temp;Humidity;BMP_temperature;BMP_pressure;BME280_temperature;BME280_humidity;BME280_pressure;Samples;Min_cycle;Max_cycle;Signal;HPM_P1;HPM_P2
2021/11/16 00:02:20;;;;;;;61.18;35.45;;;;;;;6.05;78.37;102796.92;1715389;83;21025;-73
2021/11/16 00:04:50;;;;;;;52.53;32.40;;;;;;;6.03;78.38;102788.56;1684517;83;21642;-73
2021/11/16 00:07:18;;;;;;;57.23;34.67;;;;;;;6.01;78.40;102781.00;1715412;83;21076;-73
2021/11/16 00:09:46;;;;;;;56.23;34.25;;;;;;;6.02;78.39;102777.61;1715446;83;21594;-73
2021/11/16 00:12:13;;;;;;;54.13;32.33;;;;;;;6.01;78.44;102779.69;1715345;83;21785;-72
2021/11/16 00:14:40;;;;;;;52.58;32.58;;;;;;;6.01;78.50;102781.41;1715364;83;21022;-72
2021/11/16 00:17:07;;;;;;;55.90;33.92;;;;;;;5.99;78.52;102781.28;1715302;83;21066;-72
2021/11/16 00:19:34;;;;;;;54.73;33.48;;;;;;;5.98;78.47;102788.59;1715527;83;20963;-73
2021/11/16 00:22:02;;;;;;;54.20;33.15;;;;;;;6.00;78.54;102786.10;1715406;83;20986;-72
2021/11/16 00:24:37;;;;;;;54.60;33.75;;;;;;;6.01;78.59;102787.53;1715416;83;21810;-72
2021/11/16 00:27:07;;;;;;;56.35;34.03;;;;;;;6.01;78.58;102778.38;1715762;83;21698;-73
2021/11/16 00:29:35;;;;;;;55.15;33.90;;;;;;;6.04;78.59;102771.16;1715706;83;20993;-73
2021/11/16 00:32:01;;;;;;;56.23;34.05;;;;;;;6.07;78.57;102774.42;1715507;83;21099;-73
2021/11/16 00:34:28;;;;;;;56.23;35.30;;;;;;;6.06;78.55;102777.81;1715381;83;21123;-74
2021/11/16 00:36:55;;;;;;;55.48;34.92;;;;;;;6.05;78.52;102777.32;1715260;83;21765;-74
2021/11/16 00:39:22;;;;;;;56.98;34.55;;;;;;;6.03;78.52;102769.36;1715220;83;21041;-73
2021/11/16 00:41:49;;;;;;;58.02;34.03;;;;;;;6.02;78.50;102773.69;1715267;83;21076;-74
2021/11/16 00:44:16;;;;;;;54.73;33.28;;;;;;;6.02;78.60;102770.13;1715303;83;21061;-73
2021/11/16 00:46:43;;;;;;;53.10;32.78;;;;;;;6.03;78.63;102770.25;1715352;83;21510;-73
2021/11/16 00:49:10;;;;;;;52.62;33.25;;;;;;;6.03;78.61;102770.25;1715303;83;21447;-73
2021/11/16 00:51:41;;;;;;;58.40;32.90;;;;;;;6.03;78.60;102766.73;1684147;83;21120;-73
2021/11/16 00:54:09;;;;;;;49.77;31.90;;;;;;;6.02;78.57;102773.69;1714846;83;21558;-73
2021/11/16 00:56:35;;;;;;;53.33;33.20;;;;;;;6.03;78.58;102770.25;1715417;83;21065;-72
2021/11/16 00:59:02;;;;;;;53.05;32.75;;;;;;;6.04;78.59;102764.63;1715414;83;21088;-72
2021/11/16 01:01:29;;;;;;;54.90;32.65;;;;;;;6.02;78.53;102767.14;1715353;83;21816;-72
2021/11/16 01:03:56;;;;;;;53.45;32.28;;;;;;;6.02;78.58;102776.30;1715088;83;21634;-72
2021/11/16 01:06:23;;;;;;;53.33;32.88;;;;;;;6.03;78.57;102769.36;1715430;83;20986;-72
2021/11/16 01:08:49;;;;;;;54.42;31.73;;;;;;;6.01;78.58;102766.62;1715473;83;21629;-72
2021/11/16 01:11:16;;;;;;;49.88;31.12;;;;;;;6.01;78.56;102761.39;1715324;83;21546;-72
2021/11/16 01:13:43;;;;;;;53.20;31.82;;;;;;;6.02;78.69;102767.14;1715273;83;22502;-72
2021/11/16 01:16:10;;;;;;;53.87;32.70;;;;;;;6.04;78.67;102768.55;1715250;83;21065;-72
2021/11/16 01:18:37;;;;;;;54.23;31.87;;;;;;;6.05;78.61;102776.02;1715485;83;21088;-72
2021/11/16 01:21:04;;;;;;;47.27;31.20;;;;;;;6.05;78.66;102770.38;1715543;83;21082;-72
2021/11/16 01:23:30;;;;;;;51.05;31.55;;;;;;;6.04;78.54;102768.55;1707509;83;21088;-72
2021/11/16 01:25:59;;;;;;;49.95;31.57;;;;;;;6.03;78.62;102767.64;1703258;84;21800;-72
2021/11/16 01:28:28;;;;;;;53.35;32.38;;;;;;;6.05;78.66;102758.61;1703524;84;21085;-73
2021/11/16 01:30:57;;;;;;;52.03;31.93;;;;;;;6.08;78.67;102758.86;1703548;84;21153;-73
2021/11/16 01:33:29;;;;;;;51.70;30.30;;;;;;;6.06;78.58;102763.44;1703617;84;21039;-73
2021/11/16 01:35:57;;;;;;;56.10;32.73;;;;;;;6.08;78.64;102759.23;1675247;84;21112;-73
2021/11/16 01:38:24;;;;;;;53.28;31.82;;;;;;;6.08;78.67;102753.62;1703808;84;21678;-73
2021/11/16 01:40:52;;;;;;;51.40;31.20;;;;;;;6.09;78.65;102753.22;1703261;83;21156;-73
2021/11/16 01:43:19;;;;;;;55.43;32.33;;;;;;;6.09;78.57;102749.30;1703715;83;21113;-73
2021/11/16 01:45:46;;;;;;;53.23;31.55;;;;;;;6.09;78.59;102749.30;1703623;84;21586;-73
2021/11/16 01:48:18;;;;;;;55.17;30.17;;;;;;;6.08;78.55;102740.93;1703669;83;21101;-73
2021/11/16 01:50:44;;;;;;;52.15;30.62;;;;;;;6.05;78.49;102742.92;1703370;84;21777;-73
2021/11/16 01:53:13;;;;;;;56.05;31.17;;;;;;;6.04;78.60;102742.40;1675412;84;21081;-73
2021/11/16 01:55:40;;;;;;;53.60;31.07;;;;;;;6.05;78.64;102736.39;1703715;84;21603;-73
2021/11/16 01:58:07;;;;;;;51.58;29.35;;;;;;;6.06;78.57;102738.19;1703615;84;21211;-73
2021/11/16 02:00:38;;;;;;;53.70;31.40;;;;;;;6.08;78.70;102734.39;1703669;84;21085;-73
2021/11/16 02:03:05;;;;;;;52.25;30.80;;;;;;;6.11;78.72;102738.55;1703643;83;21772;-73
2021/11/16 02:05:45;;;;;;;48.48;30.27;;;;;;;6.11;78.60;102735.94;1703662;82;21737;-73
2021/11/16 02:08:13;;;;;;;49.42;29.85;;;;;;;6.10;78.62;102738.03;1687792;84;21153;-73
2021/11/16 02:10:44;;;;;;;50.83;30.02;;;;;;;6.10;78.66;102733.73;1688357;84;21082;-73
2021/11/16 02:13:17;;;;;;;52.78;31.07;;;;;;;6.13;78.68;102730.02;1644992;85;21678;-73
2021/11/16 02:15:41;;;;;;;46.60;29.77;;;;;;;6.13;78.57;102727.81;1696104;84;21797;-73
2021/11/16 02:18:11;;;;;;;57.78;32.60;;;;;;;6.13;78.65;102729.12;1671081;84;21155;-73
2021/11/16 02:20:40;;;;;;;50.58;31.77;;;;;;;6.14;78.66;102724.42;1696613;84;21097;-73
2021/11/16 02:23:07;;;;;;;51.33;31.05;;;;;;;6.12;78.62;102720.38;1691718;84;21122;-73
2021/11/16 02:25:34;;;;;;;49.53;29.27;;;;;;;6.15;78.67;102720.58;1682988;85;21130;-73
2021/11/16 02:28:01;;;;;;;48.68;29.92;;;;;;;6.14;78.62;102718.78;1715269;83;21962;-73
2021/11/16 02:30:30;;;;;;;50.03;31.15;;;;;;;6.14;78.64;102715.27;1715501;83;21480;-73
2021/11/16 02:32:57;;;;;;;50.33;29.07;;;;;;;6.12;78.63;102711.59;1715393;82;21064;-73
2021/11/16 02:35:27;;;;;;;49.23;29.95;;;;;;;6.10;78.67;102706.66;1715403;83;21029;-73
2021/11/16 02:37:58;;;;;;;50.28;31.05;;;;;;;6.09;78.63;102702.23;1715528;83;21064;-73
2021/11/16 02:40:25;;;;;;;49.38;30.02;;;;;;;6.05;78.66;102695.88;1715562;83;21777;-73
2021/11/16 02:42:52;;;;;;;44.75;28.35;;;;;;;6.05;78.63;102702.81;1715371;83;21602;-73
2021/11/16 02:45:21;;;;;;;49.15;29.60;;;;;;;6.05;78.77;102706.33;1715489;83;21088;-73
2021/11/16 02:47:47;;;;;;;48.38;31.27;;;;;;;6.06;78.79;102698.08;1715425;83;21104;-72
2021/11/16 02:50:17;;;;;;;50.45;30.20;;;;;;;6.07;78.84;102696.89;1685283;83;21043;-73
2021/11/16 02:52:45;;;;;;;48.78;30.77;;;;;;;6.06;78.79;102685.91;1708869;83;21783;-73
2021/11/16 02:55:12;;;;;;;48.02;31.12;;;;;;;6.05;78.78;102691.05;1715256;83;21056;-73
2021/11/16 02:57:38;;;;;;;55.70;30.02;;;;;;;6.06;78.83;102685.00;1715356;83;21119;-73
2021/11/16 03:00:12;;;;;;;47.67;29.90;;;;;;;6.04;78.81;102686.19;1715316;83;21586;-73
2021/11/16 03:02:42;;;;;;;;;;;;;;;6.02;78.75;102690.40;1718272;83;21052;-73
2021/11/16 03:05:09;;;;;;;47.98;29.02;;;;;;;6.02;78.90;102680.87;1715557;83;21792;-73
2021/11/16 03:07:56;;;;;;;48.40;30.52;;;;;;;6.03;78.94;102680.06;1715795;83;21488;-73
2021/11/16 03:10:09;;;;;;;47.67;29.60;;;;;;;6.07;78.97;102679.90;1682006;85;21110;-73
2021/11/16 03:12:36;;;;;;;49.13;29.07;;;;;;;6.08;78.93;102678.18;1715736;83;21282;-73
2021/11/16 03:15:03;;;;;;;49.48;30.40;;;;;;;6.09;78.95;102677.41;1715629;83;21193;-73
2021/11/16 03:17:30;;;;;;;47.90;29.85;;;;;;;6.08;78.90;102672.58;1715473;83;21802;-73
2021/11/16 03:19:57;;;;;;;46.08;28.75;;;;;;;6.07;78.84;102665.92;1715339;83;21052;-73
2021/11/16 03:22:36;;;;;;;48.55;29.82;;;;;;;6.06;78.90;102668.91;1715308;83;21038;-74
2021/11/16 03:24:59;;;;;;;52.15;32.60;;;;;;;6.07;78.95;102668.13;1703006;82;21291;-73
2021/11/16 03:27:33;;;;;;;51.92;30.90;;;;;;;6.07;78.88;102662.00;1703547;84;21050;-73
2021/11/16 03:29:59;;;;;;;47.73;29.92;;;;;;;6.06;78.95;102658.45;1703222;83;22047;-73
2021/11/16 03:32:33;;;;;;;54.63;31.40;;;;;;;6.08;78.95;102654.28;1703501;84;21104;-73
2021/11/16 03:34:54;;;;;;;50.03;31.68;;;;;;;6.10;78.98;102650.44;1703415;82;21140;-72
2021/11/16 03:37:24;;;;;;;49.20;30.20;;;;;;;6.11;78.95;102649.66;1703627;84;21141;-73
2021/11/16 03:39:50;;;;;;;51.68;31.17;;;;;;;6.09;78.85;102653.87;1703521;84;21093;-72
2021/11/16 03:42:16;;;;;;;47.93;30.88;;;;;;;6.07;78.95;102647.22;1703542;84;21749;-73
2021/11/16 03:44:43;;;;;;;48.98;30.37;;;;;;;6.10;78.94;102649.13;1703390;83;21065;-73
2021/11/16 03:47:10;;;;;;;50.67;30.43;;;;;;;6.09;78.96;102644.31;1703492;83;21152;-73
2021/11/16 03:49:38;;;;;;;54.40;33.13;;;;;;;6.10;78.93;102650.44;1703258;84;21581;-73
2021/11/16 03:52:06;;;;;;;51.95;32.63;;;;;;;6.07;78.87;102644.60;1703834;82;22314;-73
2021/11/16 03:54:34;;;;;;;51.95;32.93;;;;;;;6.08;78.99;102648.12;1702874;82;21159;-73
2021/11/16 03:57:01;;;;;;;54.90;34.00;;;;;;;6.11;79.03;102647.05;1703399;84;21473;-73
2021/11/16 03:59:29;;;;;;;53.35;34.27;;;;;;;6.12;78.99;102642.31;1703539;83;21705;-73
2021/11/16 04:01:57;;;;;;;55.60;34.30;;;;;;;6.11;78.98;102637.90;1703638;84;21081;-73
2021/11/16 04:04:25;;;;;;;56.73;34.75;;;;;;;6.11;78.99;102644.44;1675837;84;21081;-73
2021/11/16 04:06:52;;;;;;;52.23;34.23;;;;;;;6.11;79.04;102634.88;1703685;84;21842;-73
2021/11/16 04:09:19;;;;;;;55.48;34.67;;;;;;;6.10;78.96;102632.14;1703583;84;21818;-73
2021/11/16 04:11:45;;;;;;;58.92;37.98;;;;;;;6.10;79.04;102633.45;1703662;84;21101;-72
2021/11/16 04:14:12;;;;;;;57.35;36.13;;;;;;;6.09;79.11;102623.39;1703563;83;21136;-72
2021/11/16 04:16:39;;;;;;;58.83;35.78;;;;;;;6.13;79.14;102620.61;1703610;84;21073;-73
2021/11/16 04:19:06;;;;;;;56.88;35.78;;;;;;;6.13;79.08;102616.28;1703491;84;21742;-72
2021/11/16 04:21:32;;;;;;;61.40;37.28;;;;;;;6.14;79.09;102611.98;1703513;84;21129;-72
2021/11/16 04:24:02;;;;;;;59.48;35.88;;;;;;;6.17;79.15;102618.31;1703237;82;21136;-72
2021/11/16 04:26:28;;;;;;;62.00;37.33;;;;;;;6.18;79.09;102617.53;1703336;82;21600;-72
2021/11/16 04:28:54;;;;;;;59.42;37.70;;;;;;;6.20;79.16;102608.50;1703524;84;21109;-73
2021/11/16 04:31:25;;;;;;;66.15;40.43;;;;;;;6.22;79.11;102600.36;1703281;82;22721;-72
2021/11/16 04:33:52;;;;;;;65.50;40.12;;;;;;;6.22;79.12;102603.88;1675285;84;21520;-72
2021/11/16 04:36:18;;;;;;;67.22;41.40;;;;;;;6.22;79.08;102597.75;1703540;83;21655;-73
2021/11/16 04:38:46;;;;;;;71.55;43.98;;;;;;;6.22;79.07;102598.65;1703592;84;21149;-72
2021/11/16 04:41:15;;;;;;;69.45;42.17;;;;;;;6.24;79.06;102601.38;1703173;82;21148;-72
2021/11/16 04:43:42;;;;;;;68.25;41.58;;;;;;;6.25;79.16;102594.44;1703616;84;21764;-73
2021/11/16 04:46:11;;;;;;;73.25;42.48;;;;;;;6.29;79.09;102588.63;1703469;84;21093;-73
2021/11/16 04:48:48;;;;;;;69.15;41.37;;;;;;;6.28;79.03;102587.72;1703535;84;21078;-73
2021/11/16 04:51:33;;;;;;;78.12;45.58;;;;;;;6.27;79.04;102588.91;1703537;84;21158;-73
2021/11/16 05:04:24;;;;;;;74.92;43.10;;;;;;;6.27;79.04;102566.69;1671664;84;21169;-72
2021/11/16 05:06:56;;;;;;;78.57;43.70;;;;;;;6.27;79.01;102571.91;1671776;84;21167;-74
2021/11/16 05:09:27;;;;;;;71.28;43.83;;;;;;;6.23;78.99;102576.95;1671800;84;22742;-74
2021/11/16 05:11:58;;;;;;;80.32;47.73;;;;;;;6.22;79.04;102583.37;1671543;85;21147;-74
2021/11/16 05:14:22;;;;;;;79.77;47.10;;;;;;;6.19;78.95;102576.59;1671185;83;21060;-73
2021/11/16 05:16:52;;;;;;;82.72;46.98;;;;;;;6.19;79.06;102577.91;1672030;84;21095;-75
2021/11/16 05:19:20;;;;;;;79.45;48.25;;;;;;;6.17;79.00;102578.20;1671878;84;46361;-75
2021/11/16 05:21:50;;;;;;;80.12;48.17;;;;;;;6.16;79.08;102572.06;1671961;85;21852;-81
2021/11/16 05:24:17;;;;;;;76.85;47.75;;;;;;;6.17;79.12;102570.35;1690219;82;21614;-77
2021/11/16 05:26:46;;;;;;;79.77;46.95;;;;;;;6.17;79.11;102572.97;1738024;82;21578;-81
2021/11/16 05:29:13;;;;;;;83.87;47.55;;;;;;;6.17;79.13;102567.73;1744650;82;21129;-75
2021/11/16 05:31:44;;;;;;;81.40;47.53;;;;;;;6.19;79.14;102568.75;1744583;82;21121;-76
2021/11/16 05:34:11;;;;;;;71.45;44.85;;;;;;;6.18;79.16;102567.86;1745179;81;21814;-70
2021/11/16 05:36:39;;;;;;;74.10;41.88;;;;;;;6.15;79.05;102563.70;1740378;81;21118;-83
2021/11/16 05:39:06;;;;;;;73.30;43.50;;;;;;;6.15;79.14;102565.41;1744933;82;21741;-81
2021/11/16 05:41:33;;;;;;;62.78;40.92;;;;;;;6.13;79.15;102561.78;1744820;82;21113;-78
2021/11/16 05:44:00;;;;;;;66.65;39.70;;;;;;;6.14;79.19;102562.31;1744569;81;21078;-81
2021/11/16 05:46:26;;;;;;;62.33;38.70;;;;;;;6.12;79.15;102566.48;1737944;82;21674;-81
2021/11/16 05:48:54;;;;;;;67.87;39.38;;;;;;;6.12;79.26;102563.50;1744606;82;21031;-81
2021/11/16 05:51:25;;;;;;;66.50;39.85;;;;;;;6.08;79.17;102566.70;1744021;81;21070;-80
2021/11/16 05:53:58;;;;;;;65.92;39.33;;;;;;;6.09;79.32;102563.27;1744659;82;21079;-81
2021/11/16 05:56:34;;;;;;;70.35;41.75;;;;;;;6.10;79.50;102567.72;1745055;82;21516;-82
2021/11/16 05:59:01;;;;;;;67.20;41.70;;;;;;;6.09;79.36;102563.27;1744727;82;22769;-83
2021/11/16 06:01:30;;;;;;;66.80;42.73;;;;;;;6.08;79.34;102568.38;1744933;82;21087;-82
2021/11/16 06:03:57;;;;;;;70.10;43.28;;;;;;;6.06;79.40;102566.95;1745059;82;21149;-82
2021/11/16 06:06:30;;;;;;;75.25;41.63;;;;;;;6.06;79.39;102563.44;1744554;82;21581;-82
2021/11/16 06:08:58;;;;;;;73.10;44.63;;;;;;;5.93;79.37;102547.23;1744642;82;21165;-83
2021/11/16 06:11:27;;;;;;;80.00;46.80;;;;;;;6.01;79.38;102569.25;1744792;82;21928;-82
2021/11/16 06:13:55;;;;;;;73.65;46.18;;;;;;;5.95;79.49;102555.74;1744478;82;21122;-82
2021/11/16 06:16:24;;;;;;;72.42;45.25;;;;;;;6.00;79.53;102566.11;1744628;82;21082;-82
2021/11/16 06:18:53;;;;;;;69.50;44.77;;;;;;;6.00;79.60;102568.73;1744823;82;21082;-82
2021/11/16 06:21:20;;;;;;;73.95;45.55;;;;;;;6.01;79.56;102567.05;1745160;82;21122;-81
2021/11/16 06:23:47;;;;;;;74.55;47.15;;;;;;;5.99;79.56;102565.62;1744940;82;21858;-81
2021/11/16 06:26:14;;;;;;;71.00;43.50;;;;;;;6.01;79.81;102566.64;1745291;82;21231;-81
2021/11/16 06:28:41;;;;;;;69.00;43.87;;;;;;;6.06;79.75;102570.88;1745484;82;21106;-81
2021/11/16 06:31:08;;;;;;;74.40;43.73;;;;;;;6.07;79.69;102570.50;1745412;82;21863;-81
2021/11/16 06:33:35;;;;;;;75.35;43.35;;;;;;;6.05;79.60;102574.30;1745176;82;21062;-81
2021/11/16 06:36:02;;;;;;;73.75;44.20;;;;;;;6.05;79.64;102578.23;1745353;82;21747;-81
2021/11/16 06:38:28;;;;;;;72.45;44.85;;;;;;;6.05;79.72;102570.38;1745437;82;21019;-82
2021/11/16 06:40:55;;;;;;;73.50;46.40;;;;;;;6.04;79.60;102572.47;1745372;82;21035;-81
2021/11/16 06:43:25;;;;;;;78.33;47.43;;;;;;;6.00;79.67;102568.73;1745401;82;21106;-81
2021/11/16 06:45:53;;;;;;;75.47;46.60;;;;;;;6.00;79.72;102566.11;1745400;81;21094;-81
2021/11/16 06:48:20;;;;;;;74.70;44.93;;;;;;;6.01;79.69;102564.43;1745498;82;21913;-81
2021/11/16 06:50:47;;;;;;;69.27;44.67;;;;;;;6.02;79.74;102568.47;1745423;82;21537;-81
2021/11/16 06:53:14;;;;;;;73.33;44.63;;;;;;;6.05;79.75;102565.16;1745570;82;21090;-80
2021/11/16 06:55:41;;;;;;;85.35;50.10;;;;;;;6.06;79.77;102574.80;1713107;82;21556;-81
2021/11/16 06:58:08;;;;;;;76.77;47.23;;;;;;;6.07;79.70;102571.81;1745580;82;21059;-81
2021/11/16 07:00:36;;;;;;;73.55;41.55;;;;;;;6.10;79.81;102572.94;1744562;82;21656;-81
2021/11/16 07:03:04;;;;;;;75.85;42.58;;;;;;;6.15;79.82;102575.87;1745103;81;21533;-81
2021/11/16 07:05:36;;;;;;;72.55;43.35;;;;;;;6.15;79.72;102575.87;1745362;82;21059;-81
2021/11/16 07:08:03;;;;;;;66.02;40.33;;;;;;;6.16;79.72;102575.09;1745330;81;21067;-81
2021/11/16 07:10:32;;;;;;;75.57;44.30;;;;;;;6.17;79.69;102581.71;1745358;82;21099;-81
2021/11/16 07:13:07;;;;;;;71.80;41.55;;;;;;;6.21;79.76;102580.23;1744881;82;21644;-82
2021/11/16 07:15:34;;;;;;;73.10;43.73;;;;;;;6.21;79.65;102575.00;1744436;82;21126;-82
2021/11/16 07:18:03;;;;;;;75.30;44.25;;;;;;;6.20;79.66;102571.48;1745351;82;21062;-81
2021/11/16 07:20:31;;;;;;;84.32;49.77;;;;;;;6.20;79.59;102570.17;1745215;82;21105;-82
2021/11/16 07:22:58;;;;;;;82.57;46.37;;;;;;;6.20;79.55;102566.25;1745426;82;21146;-82
2021/11/16 07:25:25;;;;;;;78.65;45.10;;;;;;;6.19;79.56;102567.07;1750268;81;21747;-82
2021/11/16 07:27:56;;;;;;;77.70;46.68;;;;;;;6.18;79.58;102565.23;1722443;81;21082;-82
2021/11/16 07:30:28;;;;;;;81.28;49.53;;;;;;;6.19;79.59;102565.77;1747831;81;21054;-81
2021/11/16 07:33:08;;;;;;;76.67;47.33;;;;;;;6.18;79.59;102558.70;1753362;81;21081;-82
2021/11/16 07:35:33;;;;;;;77.22;46.37;;;;;;;6.23;79.63;102565.55;1752279;81;21046;-82
2021/11/16 07:38:06;;;;;;;71.62;44.73;;;;;;;6.23;79.51;102560.33;1753376;81;21760;-82
2021/11/16 07:40:33;;;;;;;72.55;43.92;;;;;;;6.23;79.59;102557.70;1751995;81;21575;-82
2021/11/16 07:43:09;;;;;;;74.05;41.80;;;;;;;6.28;79.67;102555.44;1753397;81;21070;-82
2021/11/16 07:45:41;;;;;;;73.52;42.48;;;;;;;6.30;79.65;102548.20;1753242;81;21561;-81
2021/11/16 07:48:20;;;;;;;78.78;46.65;;;;;;;6.29;79.51;102550.70;1753237;81;21134;-81
2021/11/16 07:51:02;;;;;;;79.92;44.93;;;;;;;6.30;79.54;102553.43;1751669;81;22694;-82
2021/11/16 07:53:33;;;;;;;70.78;43.85;;;;;;;6.30;79.47;102547.30;1752544;81;21074;-81
2021/11/16 07:56:09;;;;;;;80.45;44.27;;;;;;;6.28;79.46;102534.52;1753295;81;21619;-81
2021/11/16 07:58:50;;;;;;;77.97;45.38;;;;;;;6.28;79.53;102534.52;1753422;81;21030;-82
2021/11/16 08:01:39;;;;;;;87.72;47.25;;;;;;;6.29;79.53;102528.47;1724043;81;21050;-81
2021/11/16 08:04:23;;;;;;;86.35;49.73;;;;;;;6.31;79.64;102522.57;1752463;81;21775;-81
2021/11/16 08:06:57;;;;;;;101.05;55.05;;;;;;;6.34;79.58;102524.08;1753119;81;21116;-81
2021/11/16 08:12:53;;;;;;;100.90;57.27;;;;;;;6.37;79.50;102515.15;1753375;81;21802;-82
2021/11/16 08:14:35;;;;;;;108.22;59.63;;;;;;;6.41;79.58;102511.94;1721774;81;21085;-81
2021/11/16 08:17:06;;;;;;;99.20;56.02;;;;;;;6.41;79.44;102508.42;1753369;81;21771;-81
2021/11/16 08:19:35;;;;;;;105.65;59.10;;;;;;;6.41;79.42;102501.48;1753331;81;21229;-81
2021/11/16 08:22:11;;;;;;;110.97;59.63;;;;;;;6.41;79.42;102505.40;1753309;81;21122;-82
2021/11/16 08:24:44;;;;;;;110.45;60.88;;;;;;;6.40;79.35;102494.83;1751199;81;21071;-81
2021/11/16 08:27:21;;;;;;;99.15;58.80;;;;;;;6.38;79.42;102492.13;1745207;82;21098;-81
2021/11/16 08:30:04;;;;;;;103.20;57.58;;;;;;;6.39;79.46;102487.39;1745401;82;21877;-82
2021/11/16 08:32:34;;;;;;;102.70;58.97;;;;;;;6.38;79.45;102485.59;1745473;82;22166;-81
2021/11/16 08:35:05;;;;;;;111.15;60.12;;;;;;;6.41;79.51;102488.40;1745396;82;21324;-82
2021/11/16 08:37:37;;;;;;;99.30;58.38;;;;;;;6.43;79.50;102486.80;1744981;82;21130;-82
2021/11/16 08:40:02;;;;;;;99.58;53.92;;;;;;;6.46;79.44;102486.50;1737564;82;21133;-82
2021/11/16 08:42:32;;;;;;;87.57;50.58;;;;;;;6.46;79.37;102482.58;1745132;82;21755;-82
2021/11/16 08:45:11;;;;;;;84.55;50.70;;;;;;;6.46;79.39;102486.50;1712575;82;21071;-82
2021/11/16 08:47:51;;;;;;;83.37;47.90;;;;;;;6.47;79.35;102487.02;1741867;82;21043;-82
2021/11/16 08:50:32;;;;;;;83.58;46.92;;;;;;;6.47;79.33;102482.69;1745281;82;21126;-82
2021/11/16 08:53:09;;;;;;;84.72;49.48;;;;;;;6.48;79.36;102481.90;1745353;82;21195;-82
2021/11/16 08:55:37;;;;;;;80.42;47.98;;;;;;;6.51;79.34;102478.17;1745288;82;21752;-83
2021/11/16 08:58:08;;;;;;;80.07;48.02;;;;;;;6.54;79.32;102476.19;1745205;82;21006;-82
2021/11/16 09:00:42;;;;;;;86.37;49.15;;;;;;;6.55;79.29;102472.38;1745406;82;20995;-82
2021/11/16 09:03:26;;;;;;;83.87;50.28;;;;;;;6.57;79.22;102470.77;1745660;82;21112;-82
2021/11/16 09:05:53;;;;;;;91.80;50.52;;;;;;;6.55;79.09;102468.82;1745406;82;21121;-83
2021/11/16 09:08:26;;;;;;;78.85;46.90;;;;;;;6.53;79.07;102462.58;1745429;82;22573;-82
2021/11/16 09:11:01;;;;;;;77.30;44.35;;;;;;;6.56;79.14;102463.70;1745134;82;21071;-82
2021/11/16 09:13:32;;;;;;;73.40;44.18;;;;;;;6.58;79.03;102463.41;1713963;82;21056;-82
2021/11/16 09:16:20;;;;;;;74.50;44.95;;;;;;;6.60;78.94;102464.41;1745421;82;21094;-83
2021/11/16 09:18:52;;;;;;;78.67;46.75;;;;;;;6.60;78.94;102468.34;1745345;82;21067;-82
2021/11/16 09:21:22;;;;;;;65.35;39.60;;;;;;;6.65;78.80;102460.82;1744745;82;21726;-82
2021/11/16 09:23:54;;;;;;;67.35;40.65;;;;;;;6.70;78.79;102452.89;1744789;82;21046;-82
2021/11/16 09:29:07;;;;;;;60.78;38.50;;;;;;;6.79;78.52;102446.98;1745244;82;26216;-82
2021/11/16 09:31:38;;;;;;;61.60;38.55;;;;;;;6.80;78.33;102443.95;1745278;82;21092;-82
2021/11/16 09:34:19;;;;;;;67.62;39.45;;;;;;;6.86;78.29;102440.84;1744988;82;22001;-82
2021/11/16 09:36:59;;;;;;;57.78;38.30;;;;;;;6.87;78.16;102439.63;1745201;81;21114;-82
2021/11/16 09:39:30;;;;;;;64.82;39.18;;;;;;;6.90;78.15;102433.69;1745393;82;21058;-82
2021/11/16 09:42:01;;;;;;;63.68;38.45;;;;;;;6.90;77.98;102430.66;1745367;82;21607;-82
2021/11/16 09:44:42;;;;;;;63.90;39.92;;;;;;;6.92;77.94;102430.77;1745513;82;21114;-82
2021/11/16 09:47:20;;;;;;;60.70;37.53;;;;;;;6.95;77.87;102430.57;1745189;82;23089;-82
2021/11/16 09:49:57;;;;;;;64.50;39.48;;;;;;;6.94;77.72;102439.63;1745765;82;21172;-82
2021/11/16 09:52:35;;;;;;;66.30;39.33;;;;;;;6.94;77.65;102431.77;1744944;82;21139;-82
2021/11/16 09:55:17;;;;;;;67.27;39.60;;;;;;;6.95;77.68;102434.91;1745598;82;21042;-82
2021/11/16 09:57:52;;;;;;;58.55;37.80;;;;;;;6.94;77.60;102432.67;1745125;82;21607;-82
2021/11/16 10:00:35;;;;;;;64.05;39.25;;;;;;;6.94;77.54;102430.46;1744658;82;21784;-82
2021/11/16 10:03:15;;;;;;;66.30;38.33;;;;;;;6.96;77.54;102435.02;1745555;82;21067;-82
2021/11/16 10:05:48;;;;;;;59.60;37.08;;;;;;;7.02;77.53;102435.83;1745557;81;21063;-82
2021/11/16 10:08:17;;;;;;;56.85;35.75;;;;;;;7.06;77.50;102432.98;1745439;82;21074;-82
2021/11/16 10:10:50;;;;;;;58.98;36.10;;;;;;;7.07;77.38;102425.64;1745444;82;21066;-82
2021/11/16 10:13:20;;;;;;;54.80;34.10;;;;;;;7.09;77.23;102421.41;1745746;82;25343;-82
2021/11/16 10:15:49;;;;;;;58.95;35.43;;;;;;;7.09;77.24;102414.45;1745623;82;21083;-82
2021/11/16 10:18:17;;;;;;;66.28;40.30;;;;;;;7.16;77.23;102410.54;1745470;82;21070;-82
2021/11/16 10:20:45;;;;;;;76.95;43.13;;;;;;;7.19;77.16;102404.20;1745447;82;21098;-82
2021/11/16 10:23:18;;;;;;;62.88;37.50;;;;;;;7.20;77.06;102400.77;1745511;82;21066;-82
2021/11/16 10:25:53;;;;;;;65.15;37.88;;;;;;;7.25;77.02;102403.70;1744772;81;21781;-82
2021/11/16 10:28:20;;;;;;;68.52;40.20;;;;;;;7.27;76.81;102398.16;1753118;81;21089;-82
2021/11/16 10:30:46;;;;;;;62.20;37.15;;;;;;;7.25;76.77;102394.12;1753583;81;21356;-82
2021/11/16 10:33:24;;;;;;;64.53;38.98;;;;;;;7.28;76.85;102391.70;1753412;81;21097;-82
2021/11/16 10:36:13;;;;;;;69.37;38.67;;;;;;;7.31;76.78;102390.98;1753710;81;21074;-82
2021/11/16 10:38:53;;;;;;;62.45;35.43;;;;;;;7.33;76.76;102386.75;1753588;81;21933;-82
2021/11/16 10:41:31;;;;;;;55.90;33.48;;;;;;;7.34;76.67;102392.51;1753332;81;21061;-81
2021/11/16 10:44:01;;;;;;;54.55;33.73;;;;;;;7.35;76.63;102392.58;1753408;81;21066;-81
2021/11/16 10:46:31;;;;;;;56.55;33.00;;;;;;;7.33;76.61;102386.34;1753277;81;21145;-81
2021/11/16 10:48:59;;;;;;;53.02;32.42;;;;;;;7.33;76.54;102385.03;1753114;81;21639;-81
2021/11/16 10:51:29;;;;;;;56.30;34.08;;;;;;;7.33;76.53;102384.13;1753123;81;22578;-84
2021/11/16 10:53:56;;;;;;;69.40;40.03;;;;;;;7.31;76.41;102390.58;1752876;81;21078;-81
2021/11/16 10:56:24;;;;;;;58.70;34.88;;;;;;;7.31;76.37;102387.06;1753299;81;21129;-81
2021/11/16 10:58:51;;;;;;;61.35;35.85;;;;;;;7.27;76.26;102384.64;1753282;81;21591;-81
2021/11/16 11:01:20;;;;;;;62.60;36.05;;;;;;;7.27;76.24;102388.98;1753043;81;21137;-81
2021/11/16 11:03:54;;;;;;;63.75;36.63;;;;;;;7.27;76.36;102387.67;1753081;81;22583;-81
2021/11/16 11:06:34;;;;;;;63.80;36.45;;;;;;;7.30;76.31;102378.69;1752694;81;21544;-83
2021/11/16 11:09:05;;;;;;;62.90;36.98;;;;;;;7.31;76.19;102381.82;1752037;81;21663;-82
2021/11/16 11:11:39;;;;;;;55.73;35.20;;;;;;;7.29;76.19;102379.09;1753149;81;21058;-82
2021/11/16 11:14:16;;;;;;;56.35;34.03;;;;;;;7.29;76.16;102374.27;1752677;81;21066;-82
2021/11/16 11:17:08;;;;;;;58.78;34.08;;;;;;;7.28;76.14;102373.75;1752476;81;21107;-82
2021/11/16 11:19:40;;;;;;;58.38;35.43;;;;;;;7.28;76.15;102377.69;1753412;81;21058;-82
2021/11/16 11:25:07;;;;;;;56.37;32.35;;;;;;;7.23;76.06;102373.88;1752478;81;21074;-82
2021/11/16 11:27:44;;;;;;;56.70;31.90;;;;;;;7.19;76.06;102372.36;1737480;81;21609;-81
2021/11/16 11:30:13;;;;;;;52.08;31.82;;;;;;;7.16;76.00;102373.88;1738027;82;21888;-81
2021/11/16 11:32:42;;;;;;;56.00;32.03;;;;;;;7.11;75.96;102373.97;1738205;82;21066;-81
2021/11/16 11:35:13;;;;;;;48.65;29.37;;;;;;;7.08;76.07;102373.80;1738422;82;21064;-81
2021/11/16 11:37:44;;;;;;;47.17;29.23;;;;;;;7.06;76.08;102367.14;1738393;81;21063;-81
2021/11/16 11:40:36;;;;;;;48.42;28.62;;;;;;;7.01;76.05;102360.28;1738389;82;21609;-81
2021/11/16 11:43:05;;;;;;;54.90;30.57;;;;;;;7.06;76.14;102360.97;1738226;82;21762;-81
2021/11/16 11:45:36;;;;;;;47.90;29.92;;;;;;;7.06;76.06;102355.36;1737691;82;21051;-81
2021/11/16 11:48:19;;;;;;;51.05;28.92;;;;;;;7.06;76.10;102351.81;1737487;81;21086;-82
2021/11/16 11:50:48;;;;;;;48.95;30.05;;;;;;;7.09;76.08;102355.95;1736535;82;21083;-82